METAR Data
IDs: Format: Raw Decoded Include TAF

Data at: 0132 UTC 20 Jul 2019

METAR for:KAIO (Atlantic Muni, IA, US)
Text:KAIO 200115Z AUTO 19011KT 10SM CLR 31/27 A2972 RMK AO2
Temperature: 31.0°C ( 88°F)
Dewpoint: 27.0°C ( 81°F) [RH = 79%]
Pressure (altimeter):29.72 inches Hg (1006.5 mb)
Winds:from the S (190 degrees) at 13 MPH (11 knots; 5.7 m/s)
Visibility:10 or more sm (16+ km)
Ceiling:at least 12,000 feet AGL
Clouds:sky clear below 12,000 feet AGL
QC Flag:automated observation with no human augmentation